sensor_id;sensor_type;location;lat;lon;timestamp;temperature;humidity
33594;DHT22;19920;52.242;20.940;2022-12-18T00:03:49;-3.40;99.90
33594;DHT22;19920;52.242;20.940;2022-12-18T00:06:15;-3.40;99.90
33594;DHT22;19920;52.242;20.940;2022-12-18T00:08:42;-3.30;99.90
33594;DHT22;19920;52.242;20.940;2022-12-18T00:11:15;-3.40;99.90
33594;DHT22;19920;52.242;20.940;2022-12-18T00:13:41;-3.30;99.90
33594;DHT22;19920;52.242;20.940;2022-12-18T00:16:09;-3.30;99.90
33594;DHT22;19920;52.242;20.940;2022-12-18T00:18:35;-3.40;99.90
33594;DHT22;19920;52.242;20.940;2022-12-18T00:21:03;-3.40;99.90
33594;DHT22;19920;52.242;20.940;2022-12-18T00:23:30;-3.30;99.90
33594;DHT22;19920;52.242;20.940;2022-12-18T00:26:04;-3.20;99.90
33594;DHT22;19920;52.242;20.940;2022-12-18T00:28:30;-3.30;99.90
33594;DHT22;19920;52.242;20.940;2022-12-18T00:31:02;-3.30;99.90
33594;DHT22;19920;52.242;20.940;2022-12-18T00:33:28;-3.30;99.90
33594;DHT22;19920;52.242;20.940;2022-12-18T00:35:54;-3.20;99.90
33594;DHT22;19920;52.242;20.940;2022-12-18T00:38:20;-3.20;99.90
33594;DHT22;19920;52.242;20.940;2022-12-18T00:40:45;-3.20;99.90
33594;DHT22;19920;52.242;20.940;2022-12-18T00:43:11;-3.20;99.90
33594;DHT22;19920;52.242;20.940;2022-12-18T00:45:36;-3.20;99.90
33594;DHT22;19920;52.242;20.940;2022-12-18T00:48:02;-3.10;99.90
33594;DHT22;19920;52.242;20.940;2022-12-18T00:50:28;-3.20;99.90
33594;DHT22;19920;52.242;20.940;2022-12-18T00:52:54;-3.20;99.90
33594;DHT22;19920;52.242;20.940;2022-12-18T00:55:19;-3.20;99.90
33594;DHT22;19920;52.242;20.940;2022-12-18T00:57:45;-3.20;99.90
33594;DHT22;19920;52.242;20.940;2022-12-18T01:00:13;-3.10;99.90
33594;DHT22;19920;52.242;20.940;2022-12-18T01:02:40;-3.20;99.90
33594;DHT22;19920;52.242;20.940;2022-12-18T01:05:07;-3.20;99.90
33594;DHT22;19920;52.242;20.940;2022-12-18T01:07:33;-3.30;99.90
33594;DHT22;19920;52.242;20.940;2022-12-18T01:09:58;-3.20;99.90
33594;DHT22;19920;52.242;20.940;2022-12-18T01:12:24;-3.20;99.90
33594;DHT22;19920;52.242;20.940;2022-12-18T01:14:50;-3.30;99.90
33594;DHT22;19920;52.242;20.940;2022-12-18T01:17:16;-3.30;99.90
33594;DHT22;19920;52.242;20.940;2022-12-18T01:19:41;-3.20;99.90
33594;DHT22;19920;52.242;20.940;2022-12-18T01:22:07;-3.10;99.90
33594;DHT22;19920;52.242;20.940;2022-12-18T01:24:33;-3.00;99.90
33594;DHT22;19920;52.242;20.940;2022-12-18T01:26:58;-3.10;99.90
33594;DHT22;19920;52.242;20.940;2022-12-18T01:29:24;-3.10;99.90
33594;DHT22;19920;52.242;20.940;2022-12-18T01:31:49;-3.30;99.90
33594;DHT22;19920;52.242;20.940;2022-12-18T01:34:15;-3.30;99.90
33594;DHT22;19920;52.242;20.940;2022-12-18T01:36:41;-3.30;99.90
33594;DHT22;19920;52.242;20.940;2022-12-18T01:39:11;-3.30;99.90
33594;DHT22;19920;52.242;20.940;2022-12-18T01:41:37;-3.40;99.90
33594;DHT22;19920;52.242;20.940;2022-12-18T01:50:19;-3.10;99.90
33594;DHT22;19920;52.242;20.940;2022-12-18T01:53:03;-3.10;99.90
33594;DHT22;19920;52.242;20.940;2022-12-18T01:55:35;-3.00;99.90
33594;DHT22;19920;52.242;20.940;2022-12-18T01:58:03;-3.00;99.90
33594;DHT22;19920;52.242;20.940;2022-12-18T02:00:29;-3.30;99.90
33594;DHT22;19920;52.242;20.940;2022-12-18T02:02:55;-3.20;99.90
33594;DHT22;19920;52.242;20.940;2022-12-18T02:16:07;-3.30;99.90
33594;DHT22;19920;52.242;20.940;2022-12-18T02:18:41;-3.30;99.90
33594;DHT22;19920;52.242;20.940;2022-12-18T02:21:33;-3.30;99.90
33594;DHT22;19920;52.242;20.940;2022-12-18T02:24:11;-3.30;99.90
33594;DHT22;19920;52.242;20.940;2022-12-18T02:26:46;-3.30;99.90
33594;DHT22;19920;52.242;20.940;2022-12-18T02:31:58;-3.20;99.90
33594;DHT22;19920;52.242;20.940;2022-12-18T02:34:29;-3.20;99.90
33594;DHT22;19920;52.242;20.940;2022-12-18T02:36:57;-3.10;99.90
33594;DHT22;19920;52.242;20.940;2022-12-18T02:39:25;-3.20;99.90
33594;DHT22;19920;52.242;20.940;2022-12-18T02:41:52;-3.10;99.90
33594;DHT22;19920;52.242;20.940;2022-12-18T02:44:18;-3.20;99.90
33594;DHT22;19920;52.242;20.940;2022-12-18T02:46:49;-3.10;99.90
33594;DHT22;19920;52.242;20.940;2022-12-18T02:49:30;-3.10;99.90
33594;DHT22;19920;52.242;20.940;2022-12-18T02:55:18;-3.20;99.90
33594;DHT22;19920;52.242;20.940;2022-12-18T02:58:03;-3.20;99.90
33594;DHT22;19920;52.242;20.940;2022-12-18T03:00:43;-3.20;99.90
33594;DHT22;19920;52.242;20.940;2022-12-18T03:03:36;-3.00;99.90
33594;DHT22;19920;52.242;20.940;2022-12-18T03:06:02;-3.10;99.90
33594;DHT22;19920;52.242;20.940;2022-12-18T03:08:33;-3.20;99.90
33594;DHT22;19920;52.242;20.940;2022-12-18T03:11:01;-3.10;99.90
33594;DHT22;19920;52.242;20.940;2022-12-18T03:13:52;-3.10;99.90
33594;DHT22;19920;52.242;20.940;2022-12-18T03:16:27;-3.10;99.90
33594;DHT22;19920;52.242;20.940;2022-12-18T03:19:06;-3.10;99.90
33594;DHT22;19920;52.242;20.940;2022-12-18T03:21:45;-3.10;99.90
33594;DHT22;19920;52.242;20.940;2022-12-18T03:24:13;-3.20;99.90
33594;DHT22;19920;52.242;20.940;2022-12-18T03:26:44;-3.20;99.90
33594;DHT22;19920;52.242;20.940;2022-12-18T03:29:14;-3.20;99.90
33594;DHT22;19920;52.242;20.940;2022-12-18T03:31:47;-3.30;99.90
33594;DHT22;19920;52.242;20.940;2022-12-18T03:34:19;-3.30;99.90
33594;DHT22;19920;52.242;20.940;2022-12-18T03:36:47;-3.30;99.90
33594;DHT22;19920;52.242;20.940;2022-12-18T03:39:13;-3.30;99.90
33594;DHT22;19920;52.242;20.940;2022-12-18T03:42:03;-3.30;99.90
33594;DHT22;19920;52.242;20.940;2022-12-18T03:44:56;-3.30;99.90
33594;DHT22;19920;52.242;20.940;2022-12-18T03:47:30;-3.30;99.90
33594;DHT22;19920;52.242;20.940;2022-12-18T03:55:16;-3.20;99.90
33594;DHT22;19920;52.242;20.940;2022-12-18T03:57:42;-3.20;99.90
33594;DHT22;19920;52.242;20.940;2022-12-18T04:00:12;-3.20;99.90
33594;DHT22;19920;52.242;20.940;2022-12-18T04:02:43;-3.20;99.90
33594;DHT22;19920;52.242;20.940;2022-12-18T04:05:10;-3.10;99.90
33594;DHT22;19920;52.242;20.940;2022-12-18T04:07:37;-3.20;99.90
33594;DHT22;19920;52.242;20.940;2022-12-18T04:10:06;-3.20;99.90
33594;DHT22;19920;52.242;20.940;2022-12-18T04:12:32;-3.40;99.90
33594;DHT22;19920;52.242;20.940;2022-12-18T04:14:58;-3.40;99.90
33594;DHT22;19920;52.242;20.940;2022-12-18T04:17:23;-3.40;99.90
33594;DHT22;19920;52.242;20.940;2022-12-18T04:19:49;-3.50;99.90
33594;DHT22;19920;52.242;20.940;2022-12-18T04:22:15;-3.40;99.90
33594;DHT22;19920;52.242;20.940;2022-12-18T04:24:41;-3.50;99.90
33594;DHT22;19920;52.242;20.940;2022-12-18T04:27:06;-3.60;99.90
33594;DHT22;19920;52.242;20.940;2022-12-18T04:29:32;-3.50;99.90
33594;DHT22;19920;52.242;20.940;2022-12-18T04:31:58;-3.40;99.90
33594;DHT22;19920;52.242;20.940;2022-12-18T04:34:24;-3.60;99.90
33594;DHT22;19920;52.242;20.940;2022-12-18T04:36:49;-3.80;99.90
33594;DHT22;19920;52.242;20.940;2022-12-18T04:39:15;-4.00;99.90
33594;DHT22;19920;52.242;20.940;2022-12-18T04:41:41;-4.00;99.90
33594;DHT22;19920;52.242;20.940;2022-12-18T04:44:06;-4.00;99.90
33594;DHT22;19920;52.242;20.940;2022-12-18T04:46:32;-4.10;99.90
33594;DHT22;19920;52.242;20.940;2022-12-18T04:48:58;-4.20;99.90
33594;DHT22;19920;52.242;20.940;2022-12-18T04:51:23;-4.20;99.90
33594;DHT22;19920;52.242;20.940;2022-12-18T04:53:49;-4.20;99.90
33594;DHT22;19920;52.242;20.940;2022-12-18T04:56:15;-4.20;99.90
33594;DHT22;19920;52.242;20.940;2022-12-18T04:58:43;-4.30;99.90
33594;DHT22;19920;52.242;20.940;2022-12-18T05:01:10;-4.30;99.90
33594;DHT22;19920;52.242;20.940;2022-12-18T05:03:36;-4.30;99.90
33594;DHT22;19920;52.242;20.940;2022-12-18T05:06:03;-4.40;99.90
33594;DHT22;19920;52.242;20.940;2022-12-18T05:08:29;-4.40;99.90
33594;DHT22;19920;52.242;20.940;2022-12-18T05:11:09;-4.30;99.90
33594;DHT22;19920;52.242;20.940;2022-12-18T05:13:35;-4.40;99.90
33594;DHT22;19920;52.242;20.940;2022-12-18T05:16:02;-4.40;99.90
33594;DHT22;19920;52.242;20.940;2022-12-18T05:18:28;-4.40;99.90
33594;DHT22;19920;52.242;20.940;2022-12-18T05:20:54;-4.40;99.90
33594;DHT22;19920;52.242;20.940;2022-12-18T05:23:20;-4.30;99.90
33594;DHT22;19920;52.242;20.940;2022-12-18T05:25:51;-4.40;99.90
33594;DHT22;19920;52.242;20.940;2022-12-18T05:28:17;-4.40;99.90
33594;DHT22;19920;52.242;20.940;2022-12-18T05:30:48;-4.30;99.90
33594;DHT22;19920;52.242;20.940;2022-12-18T05:33:15;-4.30;99.90
33594;DHT22;19920;52.242;20.940;2022-12-18T05:35:40;-4.30;99.90
33594;DHT22;19920;52.242;20.940;2022-12-18T05:38:06;-4.30;99.90
33594;DHT22;19920;52.242;20.940;2022-12-18T05:40:32;-4.30;99.90
33594;DHT22;19920;52.242;20.940;2022-12-18T05:42:57;-4.20;99.90
33594;DHT22;19920;52.242;20.940;2022-12-18T05:45:23;-4.20;99.90
33594;DHT22;19920;52.242;20.940;2022-12-18T05:47:48;-4.20;99.90
33594;DHT22;19920;52.242;20.940;2022-12-18T05:50:14;-4.20;99.90
33594;DHT22;19920;52.242;20.940;2022-12-18T05:52:40;-4.30;99.90
33594;DHT22;19920;52.242;20.940;2022-12-18T05:55:06;-4.20;99.90
33594;DHT22;19920;52.242;20.940;2022-12-18T05:57:31;-4.20;99.90
33594;DHT22;19920;52.242;20.940;2022-12-18T05:59:57;-4.20;99.90
33594;DHT22;19920;52.242;20.940;2022-12-18T06:02:23;-4.10;99.90
33594;DHT22;19920;52.242;20.940;2022-12-18T06:04:48;-4.00;99.90
33594;DHT22;19920;52.242;20.940;2022-12-18T06:07:14;-4.00;99.90
33594;DHT22;19920;52.242;20.940;2022-12-18T06:09:40;-4.10;99.90
33594;DHT22;19920;52.242;20.940;2022-12-18T06:12:05;-4.10;99.90
33594;DHT22;19920;52.242;20.940;2022-12-18T06:14:31;-4.10;99.90
33594;DHT22;19920;52.242;20.940;2022-12-18T06:16:57;-4.20;99.90
33594;DHT22;19920;52.242;20.940;2022-12-18T06:19:22;-4.20;99.90
33594;DHT22;19920;52.242;20.940;2022-12-18T06:21:48;-4.10;99.90
33594;DHT22;19920;52.242;20.940;2022-12-18T06:24:14;-4.00;99.90
33594;DHT22;19920;52.242;20.940;2022-12-18T06:26:40;-4.00;99.90
33594;DHT22;19920;52.242;20.940;2022-12-18T06:29:06;-3.90;99.90
33594;DHT22;19920;52.242;20.940;2022-12-18T06:31:32;-3.80;99.90
33594;DHT22;19920;52.242;20.940;2022-12-18T06:33:57;-3.70;99.90
33594;DHT22;19920;52.242;20.940;2022-12-18T06:36:23;-3.80;99.90
33594;DHT22;19920;52.242;20.940;2022-12-18T06:38:49;-3.80;99.90
33594;DHT22;19920;52.242;20.940;2022-12-18T06:41:17;-3.70;99.90
33594;DHT22;19920;52.242;20.940;2022-12-18T06:43:43;-3.60;99.90
33594;DHT22;19920;52.242;20.940;2022-12-18T06:46:10;-3.60;99.90
33594;DHT22;19920;52.242;20.940;2022-12-18T06:48:36;-3.70;99.90
33594;DHT22;19920;52.242;20.940;2022-12-18T06:51:02;-3.60;99.90
33594;DHT22;19920;52.242;20.940;2022-12-18T06:53:28;-3.70;99.90
33594;DHT22;19920;52.242;20.940;2022-12-18T06:56:03;-3.60;99.90
33594;DHT22;19920;52.242;20.940;2022-12-18T06:58:29;-3.50;99.90
33594;DHT22;19920;52.242;20.940;2022-12-18T07:01:00;-3.50;99.90
33594;DHT22;19920;52.242;20.940;2022-12-18T07:03:26;-3.60;99.90
33594;DHT22;19920;52.242;20.940;2022-12-18T07:05:52;-3.70;99.90
33594;DHT22;19920;52.242;20.940;2022-12-18T07:08:18;-3.70;99.90
33594;DHT22;19920;52.242;20.940;2022-12-18T07:10:44;-3.70;99.90
33594;DHT22;19920;52.242;20.940;2022-12-18T07:13:10;-3.70;99.90
33594;DHT22;19920;52.242;20.940;2022-12-18T07:15:35;-3.70;99.90
33594;DHT22;19920;52.242;20.940;2022-12-18T07:18:01;-3.60;99.90
33594;DHT22;19920;52.242;20.940;2022-12-18T07:20:27;-3.50;99.90
33594;DHT22;19920;52.242;20.940;2022-12-18T07:22:52;-3.40;99.90
33594;DHT22;19920;52.242;20.940;2022-12-18T07:25:18;-3.30;99.90
33594;DHT22;19920;52.242;20.940;2022-12-18T07:27:43;-3.30;99.90
33594;DHT22;19920;52.242;20.940;2022-12-18T07:30:10;-3.20;99.90
33594;DHT22;19920;52.242;20.940;2022-12-18T07:32:35;-3.30;99.90
33594;DHT22;19920;52.242;20.940;2022-12-18T07:35:01;-3.20;99.90
33594;DHT22;19920;52.242;20.940;2022-12-18T07:37:28;-3.20;99.90
33594;DHT22;19920;52.242;20.940;2022-12-18T07:39:54;-3.30;99.90
33594;DHT22;19920;52.242;20.940;2022-12-18T07:42:19;-3.40;99.90
33594;DHT22;19920;52.242;20.940;2022-12-18T07:45:01;-3.30;99.90
33594;DHT22;19920;52.242;20.940;2022-12-18T07:47:27;-3.30;99.90
33594;DHT22;19920;52.242;20.940;2022-12-18T07:49:53;-3.30;99.90
33594;DHT22;19920;52.242;20.940;2022-12-18T07:52:19;-3.30;99.90
33594;DHT22;19920;52.242;20.940;2022-12-18T07:54:45;-3.30;99.90
33594;DHT22;19920;52.242;20.940;2022-12-18T07:57:11;-3.40;99.90
33594;DHT22;19920;52.242;20.940;2022-12-18T07:59:36;-3.40;99.90
33594;DHT22;19920;52.242;20.940;2022-12-18T08:02:02;-3.30;99.90
33594;DHT22;19920;52.242;20.940;2022-12-18T08:04:28;-3.30;99.90
33594;DHT22;19920;52.242;20.940;2022-12-18T08:06:54;-3.30;99.90
33594;DHT22;19920;52.242;20.940;2022-12-18T08:09:19;-3.30;99.90
33594;DHT22;19920;52.242;20.940;2022-12-18T08:11:45;-3.30;99.90
33594;DHT22;19920;52.242;20.940;2022-12-18T08:14:11;-3.40;99.90
33594;DHT22;19920;52.242;20.940;2022-12-18T08:16:37;-3.40;99.90
33594;DHT22;19920;52.242;20.940;2022-12-18T08:19:02;-3.50;99.90
33594;DHT22;19920;52.242;20.940;2022-12-18T08:21:30;-3.50;99.90
33594;DHT22;19920;52.242;20.940;2022-12-18T08:23:58;-3.40;99.90
33594;DHT22;19920;52.242;20.940;2022-12-18T08:26:24;-3.40;99.90
33594;DHT22;19920;52.242;20.940;2022-12-18T08:28:51;-3.30;99.90
33594;DHT22;19920;52.242;20.940;2022-12-18T08:31:17;-3.00;99.90
33594;DHT22;19920;52.242;20.940;2022-12-18T08:33:43;-3.00;99.90
33594;DHT22;19920;52.242;20.940;2022-12-18T08:36:10;-3.20;99.90
33594;DHT22;19920;52.242;20.940;2022-12-18T08:38:36;-3.20;99.90
33594;DHT22;19920;52.242;20.940;2022-12-18T08:41:03;-3.20;99.90
33594;DHT22;19920;52.242;20.940;2022-12-18T08:43:29;-3.20;99.90
33594;DHT22;19920;52.242;20.940;2022-12-18T08:46:13;-3.00;99.90
33594;DHT22;19920;52.242;20.940;2022-12-18T08:48:39;-3.20;99.90
33594;DHT22;19920;52.242;20.940;2022-12-18T08:51:05;-3.20;99.90
33594;DHT22;19920;52.242;20.940;2022-12-18T08:53:31;-3.10;99.90
33594;DHT22;19920;52.242;20.940;2022-12-18T08:55:56;-3.20;99.90
33594;DHT22;19920;52.242;20.940;2022-12-18T08:58:22;-3.10;99.90
33594;DHT22;19920;52.242;20.940;2022-12-18T09:00:48;-3.00;99.90
33594;DHT22;19920;52.242;20.940;2022-12-18T09:03:18;-2.90;99.90
33594;DHT22;19920;52.242;20.940;2022-12-18T09:05:45;-2.70;99.90
33594;DHT22;19920;52.242;20.940;2022-12-18T09:08:12;-2.70;99.90
33594;DHT22;19920;52.242;20.940;2022-12-18T09:10:42;-2.90;99.90
33594;DHT22;19920;52.242;20.940;2022-12-18T09:13:10;-2.90;99.90
33594;DHT22;19920;52.242;20.940;2022-12-18T09:15:43;-2.70;99.90
33594;DHT22;19920;52.242;20.940;2022-12-18T09:18:11;-2.60;99.90
33594;DHT22;19920;52.242;20.940;2022-12-18T09:20:37;-2.30;99.90
33594;DHT22;19920;52.242;20.940;2022-12-18T09:23:04;-2.20;99.90
33594;DHT22;19920;52.242;20.940;2022-12-18T09:25:30;-2.20;99.90
33594;DHT22;19920;52.242;20.940;2022-12-18T09:28:11;-2.40;99.90
33594;DHT22;19920;52.242;20.940;2022-12-18T09:30:39;-2.20;99.90
33594;DHT22;19920;52.242;20.940;2022-12-18T09:33:05;-2.30;99.90
33594;DHT22;19920;52.242;20.940;2022-12-18T09:35:30;-2.50;99.90
33594;DHT22;19920;52.242;20.940;2022-12-18T09:37:56;-2.20;99.90
33594;DHT22;19920;52.242;20.940;2022-12-18T09:40:25;-1.90;99.90
33594;DHT22;19920;52.242;20.940;2022-12-18T09:42:58;-1.80;99.90
33594;DHT22;19920;52.242;20.940;2022-12-18T09:45:25;-1.80;99.90
33594;DHT22;19920;52.242;20.940;2022-12-18T09:47:52;-2.10;99.90
33594;DHT22;19920;52.242;20.940;2022-12-18T09:52:51;-2.70;99.90
33594;DHT22;19920;52.242;20.940;2022-12-18T09:55:31;-2.50;99.90
33594;DHT22;19920;52.242;20.940;2022-12-18T10:00:52;-2.40;99.90
33594;DHT22;19920;52.242;20.940;2022-12-18T10:03:18;-2.40;99.90
33594;DHT22;19920;52.242;20.940;2022-12-18T10:16:47;-2.20;99.90
33594;DHT22;19920;52.242;20.940;2022-12-18T10:29:37;-2.30;99.90
33594;DHT22;19920;52.242;20.940;2022-12-18T10:32:03;-2.50;99.90
33594;DHT22;19920;52.242;20.940;2022-12-18T10:34:29;-2.60;99.90
33594;DHT22;19920;52.242;20.940;2022-12-18T10:36:54;-2.50;99.90
33594;DHT22;19920;52.242;20.940;2022-12-18T10:39:23;-2.50;99.90
33594;DHT22;19920;52.242;20.940;2022-12-18T10:41:50;-2.50;99.90
33594;DHT22;19920;52.242;20.940;2022-12-18T10:44:23;-2.50;99.90
33594;DHT22;19920;52.242;20.940;2022-12-18T10:46:54;-2.60;99.90
33594;DHT22;19920;52.242;20.940;2022-12-18T10:49:29;-2.50;99.90
33594;DHT22;19920;52.242;20.940;2022-12-18T10:52:15;-2.30;99.90
33594;DHT22;19920;52.242;20.940;2022-12-18T10:54:50;-2.20;99.90
33594;DHT22;19920;52.242;20.940;2022-12-18T10:57:29;-1.90;99.90
33594;DHT22;19920;52.242;20.940;2022-12-18T10:59:57;-1.70;99.90
33594;DHT22;19920;52.242;20.940;2022-12-18T11:04:57;-1.60;99.90
33594;DHT22;19920;52.242;20.940;2022-12-18T11:07:23;-1.40;99.90
33594;DHT22;19920;52.242;20.940;2022-12-18T11:10:00;-1.40;99.90
33594;DHT22;19920;52.242;20.940;2022-12-18T11:12:28;-1.30;99.90
33594;DHT22;19920;52.242;20.940;2022-12-18T11:14:57;-1.10;99.90
33594;DHT22;19920;52.242;20.940;2022-12-18T11:17:35;-0.90;99.90
33594;DHT22;19920;52.242;20.940;2022-12-18T11:20:05;-1.20;99.90
33594;DHT22;19920;52.242;20.940;2022-12-18T11:22:36;-1.30;99.90
33594;DHT22;19920;52.242;20.940;2022-12-18T11:27:40;-1.40;99.90
33594;DHT22;19920;52.242;20.940;2022-12-18T11:30:27;-1.40;99.90
33594;DHT22;19920;52.242;20.940;2022-12-18T11:33:10;-1.30;99.90
33594;DHT22;19920;52.242;20.940;2022-12-18T11:35:56;-1.40;99.90
33594;DHT22;19920;52.242;20.940;2022-12-18T11:38:26;-1.50;99.90
33594;DHT22;19920;52.242;20.940;2022-12-18T11:40:58;-1.40;99.90
33594;DHT22;19920;52.242;20.940;2022-12-18T11:43:38;-1.20;99.90
33594;DHT22;19920;52.242;20.940;2022-12-18T11:46:17;-1.10;99.90
33594;DHT22;19920;52.242;20.940;2022-12-18T11:48:51;-1.10;99.90
33594;DHT22;19920;52.242;20.940;2022-12-18T11:51:35;-1.10;99.90
33594;DHT22;19920;52.242;20.940;2022-12-18T11:54:12;-1.30;99.90
33594;DHT22;19920;52.242;20.940;2022-12-18T11:57:34;-1.20;99.90
33594;DHT22;19920;52.242;20.940;2022-12-18T12:05:42;-1.10;99.90
33594;DHT22;19920;52.242;20.940;2022-12-18T12:19:02;-1.30;99.90
33594;DHT22;19920;52.242;20.940;2022-12-18T12:24:19;-1.00;99.90
33594;DHT22;19920;52.242;20.940;2022-12-18T12:35:29;-0.80;99.90
33594;DHT22;19920;52.242;20.940;2022-12-18T12:40:38;-0.70;99.90
33594;DHT22;19920;52.242;20.940;2022-12-18T12:46:05;-0.70;99.90
33594;DHT22;19920;52.242;20.940;2022-12-18T12:50:58;-0.80;99.90
33594;DHT22;19920;52.242;20.940;2022-12-18T12:53:30;-0.90;99.90
33594;DHT22;19920;52.242;20.940;2022-12-18T12:55:58;-1.00;99.90
33594;DHT22;19920;52.242;20.940;2022-12-18T13:06:44;-1.30;99.90
33594;DHT22;19920;52.242;20.940;2022-12-18T13:09:12;-1.20;99.90
33594;DHT22;19920;52.242;20.940;2022-12-18T13:11:44;-1.20;99.90
33594;DHT22;19920;52.242;20.940;2022-12-18T13:14:35;-1.50;99.90
33594;DHT22;19920;52.242;20.940;2022-12-18T13:20:11;-1.90;99.90
33594;DHT22;19920;52.242;20.940;2022-12-18T13:25:02;-1.90;99.90
33594;DHT22;19920;52.242;20.940;2022-12-18T13:41:22;-2.10;99.90
33594;DHT22;19920;52.242;20.940;2022-12-18T13:46:55;-1.90;99.90
33594;DHT22;19920;52.242;20.940;2022-12-18T13:49:41;-2.20;99.90
33594;DHT22;19920;52.242;20.940;2022-12-18T13:52:23;-2.20;99.90
33594;DHT22;19920;52.242;20.940;2022-12-18T13:54:55;-2.10;99.90
33594;DHT22;19920;52.242;20.940;2022-12-18T13:57:28;-1.90;99.90
33594;DHT22;19920;52.242;20.940;2022-12-18T13:59:55;-2.00;99.90
33594;DHT22;19920;52.242;20.940;2022-12-18T14:02:24;-2.00;99.90
33594;DHT22;19920;52.242;20.940;2022-12-18T14:04:50;-2.20;99.90
33594;DHT22;19920;52.242;20.940;2022-12-18T14:09:59;-2.70;99.90
33594;DHT22;19920;52.242;20.940;2022-12-18T14:12:27;-2.70;99.90
33594;DHT22;19920;52.242;20.940;2022-12-18T14:15:23;-2.80;99.90
33594;DHT22;19920;52.242;20.940;2022-12-18T14:17:52;-2.90;99.90
33594;DHT22;19920;52.242;20.940;2022-12-18T14:20:18;-2.80;99.90
33594;DHT22;19920;52.242;20.940;2022-12-18T14:22:49;-2.70;99.90
33594;DHT22;19920;52.242;20.940;2022-12-18T14:25:18;-2.60;99.90
33594;DHT22;19920;52.242;20.940;2022-12-18T14:30:31;-2.40;99.90
33594;DHT22;19920;52.242;20.940;2022-12-18T14:33:25;-2.30;99.90
33594;DHT22;19920;52.242;20.940;2022-12-18T14:36:02;-2.30;99.90
33594;DHT22;19920;52.242;20.940;2022-12-18T14:38:36;-2.30;99.90
33594;DHT22;19920;52.242;20.940;2022-12-18T14:41:14;-2.20;99.90
33594;DHT22;19920;52.242;20.940;2022-12-18T14:43:45;-2.30;99.90
33594;DHT22;19920;52.242;20.940;2022-12-18T14:46:32;-2.20;99.90
33594;DHT22;19920;52.242;20.940;2022-12-18T14:49:44;-2.20;99.90
33594;DHT22;19920;52.242;20.940;2022-12-18T14:52:27;-2.10;99.90
33594;DHT22;19920;52.242;20.940;2022-12-18T14:54:49;-2.20;99.90
33594;DHT22;19920;52.242;20.940;2022-12-18T14:57:25;-2.10;99.90
33594;DHT22;19920;52.242;20.940;2022-12-18T14:59:52;-2.10;99.90
33594;DHT22;19920;52.242;20.940;2022-12-18T15:05:25;-2.10;99.90
33594;DHT22;19920;52.242;20.940;2022-12-18T15:07:52;-2.10;99.90
33594;DHT22;19920;52.242;20.940;2022-12-18T15:10:28;-2.00;99.90
33594;DHT22;19920;52.242;20.940;2022-12-18T15:25:55;-2.10;99.90
33594;DHT22;19920;52.242;20.940;2022-12-18T15:33:34;-2.10;99.90
33594;DHT22;19920;52.242;20.940;2022-12-18T15:36:02;-2.00;99.90
33594;DHT22;19920;52.242;20.940;2022-12-18T15:38:28;-2.10;99.90
33594;DHT22;19920;52.242;20.940;2022-12-18T15:40:54;-2.10;99.90
33594;DHT22;19920;52.242;20.940;2022-12-18T15:43:22;-2.10;99.90
33594;DHT22;19920;52.242;20.940;2022-12-18T15:46:13;-2.20;99.90
33594;DHT22;19920;52.242;20.940;2022-12-18T15:48:41;-2.10;99.90
33594;DHT22;19920;52.242;20.940;2022-12-18T15:53:39;-2.20;99.90
33594;DHT22;19920;52.242;20.940;2022-12-18T15:56:10;-2.10;99.90
33594;DHT22;19920;52.242;20.940;2022-12-18T15:58:54;-2.10;99.90
33594;DHT22;19920;52.242;20.940;2022-12-18T16:01:21;-2.00;99.90
33594;DHT22;19920;52.242;20.940;2022-12-18T16:03:48;-1.90;99.90
33594;DHT22;19920;52.242;20.940;2022-12-18T16:06:14;-1.80;99.90
33594;DHT22;19920;52.242;20.940;2022-12-18T16:08:39;-1.90;99.90
33594;DHT22;19920;52.242;20.940;2022-12-18T16:11:05;-2.00;99.90
33594;DHT22;19920;52.242;20.940;2022-12-18T16:13:34;-1.90;99.90
33594;DHT22;19920;52.242;20.940;2022-12-18T16:15:59;-1.90;99.90
33594;DHT22;19920;52.242;20.940;2022-12-18T16:18:25;-2.00;99.90
33594;DHT22;19920;52.242;20.940;2022-12-18T16:20:50;-2.00;99.90
33594;DHT22;19920;52.242;20.940;2022-12-18T16:23:16;-2.00;99.90
33594;DHT22;19920;52.242;20.940;2022-12-18T16:25:42;-1.90;99.90
33594;DHT22;19920;52.242;20.940;2022-12-18T16:28:07;-2.00;99.90
33594;DHT22;19920;52.242;20.940;2022-12-18T16:30:33;-2.10;99.90
33594;DHT22;19920;52.242;20.940;2022-12-18T16:32:59;-2.10;99.90
33594;DHT22;19920;52.242;20.940;2022-12-18T16:35:26;-2.00;99.90
33594;DHT22;19920;52.242;20.940;2022-12-18T16:37:52;-1.90;99.90
33594;DHT22;19920;52.242;20.940;2022-12-18T16:40:18;-1.90;99.90
33594;DHT22;19920;52.242;20.940;2022-12-18T16:42:45;-2.00;99.90
33594;DHT22;19920;52.242;20.940;2022-12-18T16:45:13;-2.10;99.90
33594;DHT22;19920;52.242;20.940;2022-12-18T16:47:40;-2.10;99.90
33594;DHT22;19920;52.242;20.940;2022-12-18T16:50:06;-2.20;99.90
33594;DHT22;19920;52.242;20.940;2022-12-18T16:52:33;-2.20;99.90
33594;DHT22;19920;52.242;20.940;2022-12-18T16:54:58;-2.30;99.90
33594;DHT22;19920;52.242;20.940;2022-12-18T16:57:24;-2.20;99.90
33594;DHT22;19920;52.242;20.940;2022-12-18T16:59:50;-2.20;99.90
33594;DHT22;19920;52.242;20.940;2022-12-18T17:02:17;-2.10;99.90
33594;DHT22;19920;52.242;20.940;2022-12-18T17:04:43;-2.20;99.90
33594;DHT22;19920;52.242;20.940;2022-12-18T17:07:09;-2.20;99.90
33594;DHT22;19920;52.242;20.940;2022-12-18T17:09:36;-2.00;99.90
33594;DHT22;19920;52.242;20.940;2022-12-18T17:12:02;-2.10;99.90
33594;DHT22;19920;52.242;20.940;2022-12-18T17:14:27;-2.20;99.90
33594;DHT22;19920;52.242;20.940;2022-12-18T17:16:54;-2.20;99.90
33594;DHT22;19920;52.242;20.940;2022-12-18T17:19:22;-2.10;99.90
33594;DHT22;19920;52.242;20.940;2022-12-18T17:21:49;-2.10;99.90
33594;DHT22;19920;52.242;20.940;2022-12-18T17:24:15;-2.10;99.90
33594;DHT22;19920;52.242;20.940;2022-12-18T17:26:41;-2.30;99.90
33594;DHT22;19920;52.242;20.940;2022-12-18T17:29:08;-2.40;99.90
33594;DHT22;19920;52.242;20.940;2022-12-18T17:31:34;-2.50;99.90
33594;DHT22;19920;52.242;20.940;2022-12-18T17:34:01;-2.40;99.90
33594;DHT22;19920;52.242;20.940;2022-12-18T17:36:27;-2.40;99.90
33594;DHT22;19920;52.242;20.940;2022-12-18T17:38:58;-2.40;99.90
33594;DHT22;19920;52.242;20.940;2022-12-18T17:41:25;-2.40;99.90
33594;DHT22;19920;52.242;20.940;2022-12-18T17:43:51;-2.50;99.90
33594;DHT22;19920;52.242;20.940;2022-12-18T17:46:18;-2.40;99.90
33594;DHT22;19920;52.242;20.940;2022-12-18T17:48:44;-2.40;99.90
33594;DHT22;19920;52.242;20.940;2022-12-18T17:51:10;-2.30;99.90
33594;DHT22;19920;52.242;20.940;2022-12-18T17:53:39;-2.30;99.90
33594;DHT22;19920;52.242;20.940;2022-12-18T17:56:05;-2.40;99.90
33594;DHT22;19920;52.242;20.940;2022-12-18T17:58:32;-2.40;99.90
33594;DHT22;19920;52.242;20.940;2022-12-18T18:00:59;-2.40;99.90
33594;DHT22;19920;52.242;20.940;2022-12-18T18:03:25;-2.40;99.90
33594;DHT22;19920;52.242;20.940;2022-12-18T18:05:55;-2.50;99.90